EXS11T EGKK-LFLB
Flight info
| Callsign | EXS11T |
|---|---|
| Flight time | 1h 21m |
| Altitude | 29000 |
| Route | BOGNA UL612 OGULO DCT OKASI DCT OKEKO DCT OKIRA DCT MOU DCT FEDZI |
| Aircraft | B738/M-SDE2E3FGHIRWXY/LB1 |
Departure
| Time | 2026-04-17 08:44 |
|---|---|
| Airport | London Gatwick Airport (EGKK) |
Arrival
| Time | 2026-04-17 10:05 |
|---|---|
| Airport | Chambéry Aix les Bains airport (LFLB) |
| Time | Latitude | Longitude | Altitude | Speed | Heading |
|---|---|---|---|---|---|
| 2026-04-17 08:10 | 51.15468 | -0.17085 | 214 ft | 0 kts | 348° |
| 2026-04-17 08:34 | 51.15460 | -0.17082 | 215 ft | 4 kts | 348° |
| 2026-04-17 08:35 | 51.15434 | -0.17073 | 207 ft | 4 kts | 353° |
| 2026-04-17 08:35 | 51.15415 | -0.17081 | 206 ft | 4 kts | 65° |
| 2026-04-17 08:35 | 51.15409 | -0.17112 | 210 ft | 4 kts | 77° |
| 2026-04-17 08:35 | 51.15407 | -0.17126 | 211 ft | 0 kts | 77° |
| 2026-04-17 08:39 | 51.15407 | -0.17125 | 203 ft | 1 kts | 77° |
| 2026-04-17 08:39 | 51.15414 | -0.17073 | 203 ft | 7 kts | 78° |
| 2026-04-17 08:39 | 51.15424 | -0.17005 | 203 ft | 6 kts | 77° |
| 2026-04-17 08:39 | 51.15431 | -0.16954 | 203 ft | 4 kts | 77° |
| 2026-04-17 08:40 | 51.15438 | -0.16905 | 205 ft | 5 kts | 77° |
| 2026-04-17 08:40 | 51.15450 | -0.16822 | 211 ft | 10 kts | 77° |
| 2026-04-17 08:40 | 51.15433 | -0.16728 | 204 ft | 9 kts | 156° |
| 2026-04-17 08:40 | 51.15361 | -0.16699 | 203 ft | 10 kts | 164° |
| 2026-04-17 08:41 | 51.15293 | -0.16667 | 208 ft | 9 kts | 167° |
| 2026-04-17 08:41 | 51.15253 | -0.16653 | 203 ft | 2 kts | 167° |
| 2026-04-17 08:41 | 51.15252 | -0.16653 | 203 ft | 0 kts | 167° |
| 2026-04-17 08:41 | 51.15247 | -0.16651 | 203 ft | 0 kts | 167° |
| 2026-04-17 08:42 | 51.15233 | -0.16646 | 213 ft | 7 kts | 167° |
| 2026-04-17 08:42 | 51.15162 | -0.16639 | 204 ft | 14 kts | 205° |
| 2026-04-17 08:42 | 51.15134 | -0.16713 | 203 ft | 0 kts | 256° |
| 2026-04-17 08:43 | 51.15134 | -0.16714 | 203 ft | 1 kts | 256° |
| 2026-04-17 08:43 | 51.15104 | -0.16926 | 202 ft | 51 kts | 257° |
| 2026-04-17 08:44 | 51.14979 | -0.17832 | 209 ft | 115 kts | 257° |
| 2026-04-17 08:44 | 51.14760 | -0.19353 | 252 ft | 161 kts | 253° |
| 2026-04-17 08:44 | 51.14506 | -0.21174 | 796 ft | 172 kts | 254° |
| 2026-04-17 08:44 | 51.14246 | -0.23067 | 1501 ft | 178 kts | 255° |
| 2026-04-17 08:45 | 51.13967 | -0.25124 | 1855 ft | 202 kts | 256° |
| 2026-04-17 08:45 | 51.13668 | -0.27327 | 2366 ft | 209 kts | 255° |
| 2026-04-17 08:45 | 51.13358 | -0.29579 | 3067 ft | 208 kts | 255° |
| 2026-04-17 08:45 | 51.13038 | -0.31869 | 3752 ft | 214 kts | 255° |
| 2026-04-17 08:46 | 51.12716 | -0.34162 | 4608 ft | 212 kts | 255° |
| 2026-04-17 08:46 | 51.12389 | -0.36482 | 5342 ft | 216 kts | 255° |
| 2026-04-17 08:46 | 51.12047 | -0.38831 | 6040 ft | 220 kts | 251° |
| 2026-04-17 08:46 | 51.11209 | -0.40853 | 6696 ft | 225 kts | 219° |
| 2026-04-17 08:47 | 51.09784 | -0.41896 | 7395 ft | 231 kts | 193° |
| 2026-04-17 08:47 | 51.08163 | -0.41987 | 8111 ft | 236 kts | 180° |
| 2026-04-17 08:47 | 51.06481 | -0.41764 | 8533 ft | 254 kts | 178° |
| 2026-04-17 08:47 | 51.04652 | -0.41488 | 8882 ft | 271 kts | 178° |
| 2026-04-17 08:48 | 51.02747 | -0.41215 | 9531 ft | 278 kts | 179° |
| 2026-04-17 08:48 | 51.00837 | -0.40955 | 10263 ft | 280 kts | 179° |
| 2026-04-17 08:48 | 50.98853 | -0.40693 | 10644 ft | 297 kts | 179° |
| 2026-04-17 08:48 | 50.96712 | -0.40422 | 10822 ft | 319 kts | 179° |
| 2026-04-17 08:49 | 50.94455 | -0.40137 | 11275 ft | 329 kts | 179° |
| 2026-04-17 08:49 | 50.92156 | -0.39843 | 11939 ft | 333 kts | 179° |
| 2026-04-17 08:49 | 50.89848 | -0.39546 | 12723 ft | 334 kts | 179° |
| 2026-04-17 08:49 | 50.87528 | -0.39252 | 13475 ft | 336 kts | 179° |
| 2026-04-17 08:50 | 50.85184 | -0.38956 | 14221 ft | 339 kts | 179° |
| 2026-04-17 08:50 | 50.82850 | -0.38169 | 14866 ft | 352 kts | 161° |
| 2026-04-17 08:50 | 50.80703 | -0.36211 | 15540 ft | 360 kts | 151° |
| 2026-04-17 08:50 | 50.78631 | -0.34021 | 16174 ft | 365 kts | 150° |
| 2026-04-17 08:51 | 50.76512 | -0.31762 | 16803 ft | 370 kts | 151° |
| 2026-04-17 08:51 | 50.74359 | -0.29499 | 17471 ft | 374 kts | 151° |
| 2026-04-17 08:51 | 50.72174 | -0.27234 | 18121 ft | 378 kts | 152° |
| 2026-04-17 08:51 | 50.69965 | -0.24959 | 18721 ft | 382 kts | 152° |
| 2026-04-17 08:52 | 50.67732 | -0.22638 | 19287 ft | 385 kts | 151° |
| 2026-04-17 08:52 | 50.65494 | -0.20292 | 19888 ft | 388 kts | 151° |
| 2026-04-17 08:52 | 50.63239 | -0.17925 | 20435 ft | 392 kts | 151° |
| 2026-04-17 08:52 | 50.60958 | -0.15533 | 20979 ft | 395 kts | 151° |
| 2026-04-17 08:53 | 50.58664 | -0.13131 | 21541 ft | 398 kts | 151° |
| 2026-04-17 08:53 | 50.56376 | -0.10741 | 22071 ft | 401 kts | 151° |
| 2026-04-17 08:53 | 50.54044 | -0.08308 | 22611 ft | 405 kts | 152° |
| 2026-04-17 08:53 | 50.51691 | -0.05856 | 23133 ft | 408 kts | 152° |
| 2026-04-17 08:54 | 50.49316 | -0.03383 | 23660 ft | 411 kts | 152° |
| 2026-04-17 08:54 | 50.46922 | -0.00896 | 24097 ft | 414 kts | 152° |
| 2026-04-17 08:54 | 50.44866 | 0.01237 | 24447 ft | 417 kts | 151° |
| 2026-04-17 08:54 | 50.42385 | 0.03817 | 24962 ft | 417 kts | 152° |
| 2026-04-17 08:55 | 50.39984 | 0.06315 | 25561 ft | 413 kts | 152° |
| 2026-04-17 08:55 | 50.37587 | 0.08806 | 26178 ft | 411 kts | 152° |
| 2026-04-17 08:55 | 50.35237 | 0.11243 | 26684 ft | 412 kts | 152° |
| 2026-04-17 08:55 | 50.32848 | 0.13721 | 27179 ft | 412 kts | 152° |
| 2026-04-17 08:56 | 50.30462 | 0.16195 | 27713 ft | 411 kts | 152° |
| 2026-04-17 08:56 | 50.28078 | 0.18666 | 28276 ft | 410 kts | 152° |
| 2026-04-17 08:56 | 50.25705 | 0.21124 | 28789 ft | 409 kts | 152° |
| 2026-04-17 08:56 | 50.23327 | 0.23581 | 29229 ft | 411 kts | 152° |
| 2026-04-17 08:57 | 50.20924 | 0.26057 | 29208 ft | 416 kts | 152° |
| 2026-04-17 08:57 | 50.16135 | 0.30987 | 29213 ft | 408 kts | 152° |
| 2026-04-17 08:58 | 50.11431 | 0.35807 | 29241 ft | 409 kts | 152° |
| 2026-04-17 08:58 | 50.06663 | 0.40681 | 29240 ft | 411 kts | 152° |
| 2026-04-17 08:59 | 50.01877 | 0.45565 | 29230 ft | 412 kts | 152° |
| 2026-04-17 08:59 | 49.97089 | 0.50443 | 29233 ft | 412 kts | 152° |
| 2026-04-17 09:00 | 49.92301 | 0.55310 | 29225 ft | 411 kts | 152° |
| 2026-04-17 09:00 | 49.87559 | 0.60117 | 29225 ft | 410 kts | 152° |
| 2026-04-17 09:01 | 49.82928 | 0.65301 | 29240 ft | 412 kts | 146° |
| 2026-04-17 09:01 | 49.78498 | 0.70944 | 29222 ft | 412 kts | 145° |
| 2026-04-17 09:02 | 49.74076 | 0.76587 | 29232 ft | 412 kts | 145° |
| 2026-04-17 09:02 | 49.69668 | 0.82140 | 29223 ft | 411 kts | 145° |
| 2026-04-17 09:03 | 49.65226 | 0.87697 | 29226 ft | 411 kts | 146° |
| 2026-04-17 09:03 | 49.60781 | 0.93239 | 29223 ft | 411 kts | 145° |
| 2026-04-17 09:04 | 49.56330 | 0.98776 | 29234 ft | 411 kts | 145° |
| 2026-04-17 09:04 | 49.51874 | 1.04306 | 29229 ft | 412 kts | 145° |
| 2026-04-17 09:05 | 49.47449 | 1.09786 | 29234 ft | 411 kts | 145° |
| 2026-04-17 09:05 | 49.42987 | 1.15301 | 29240 ft | 411 kts | 145° |
| 2026-04-17 09:06 | 49.38524 | 1.20799 | 29239 ft | 411 kts | 145° |
| 2026-04-17 09:06 | 49.34064 | 1.26281 | 29240 ft | 411 kts | 145° |
| 2026-04-17 09:07 | 49.29635 | 1.31715 | 29231 ft | 410 kts | 145° |
| 2026-04-17 09:07 | 49.25175 | 1.37174 | 29238 ft | 411 kts | 144° |
| 2026-04-17 09:08 | 49.20710 | 1.42629 | 29249 ft | 411 kts | 144° |
| 2026-04-17 09:08 | 49.16232 | 1.48086 | 29245 ft | 413 kts | 144° |
| 2026-04-17 09:09 | 49.12495 | 1.52630 | 29241 ft | 413 kts | 144° |
| 2026-04-17 09:09 | 49.07262 | 1.58979 | 29236 ft | 414 kts | 144° |
| 2026-04-17 09:10 | 49.01267 | 1.66230 | 29240 ft | 413 kts | 144° |
| 2026-04-17 09:10 | 48.96771 | 1.71654 | 29238 ft | 412 kts | 144° |
| 2026-04-17 09:11 | 48.91547 | 1.77939 | 29233 ft | 412 kts | 144° |
| 2026-04-17 09:11 | 48.87048 | 1.83337 | 29243 ft | 412 kts | 144° |
| 2026-04-17 09:12 | 48.83272 | 1.87859 | 29240 ft | 413 kts | 144° |
| 2026-04-17 09:12 | 48.78786 | 1.93219 | 29244 ft | 414 kts | 144° |
| 2026-04-17 09:13 | 48.74254 | 1.98622 | 29240 ft | 414 kts | 144° |
| 2026-04-17 09:13 | 48.69720 | 2.04015 | 29237 ft | 414 kts | 144° |
| 2026-04-17 09:14 | 48.65187 | 2.09395 | 29238 ft | 414 kts | 144° |
| 2026-04-17 09:14 | 48.60693 | 2.14717 | 29239 ft | 413 kts | 144° |
| 2026-04-17 09:15 | 48.56202 | 2.20121 | 29232 ft | 413 kts | 139° |
| 2026-04-17 09:15 | 48.52121 | 2.26233 | 29245 ft | 414 kts | 135° |
| 2026-04-17 09:16 | 48.48105 | 2.32460 | 29239 ft | 414 kts | 136° |
| 2026-04-17 09:16 | 48.44054 | 2.38637 | 29239 ft | 414 kts | 136° |
| 2026-04-17 09:17 | 48.40013 | 2.44732 | 29228 ft | 414 kts | 136° |
| 2026-04-17 09:17 | 48.35938 | 2.50855 | 29234 ft | 414 kts | 136° |
| 2026-04-17 09:18 | 48.31867 | 2.56961 | 29237 ft | 414 kts | 136° |
| 2026-04-17 09:18 | 48.27597 | 2.62723 | 29232 ft | 412 kts | 147° |
| 2026-04-17 09:19 | 48.22523 | 2.66518 | 29247 ft | 410 kts | 158° |
| 2026-04-17 09:19 | 48.17395 | 2.70312 | 29238 ft | 412 kts | 152° |
| 2026-04-17 09:20 | 48.12384 | 2.74498 | 29232 ft | 412 kts | 153° |
| 2026-04-17 09:20 | 48.07322 | 2.78538 | 29231 ft | 412 kts | 156° |
| 2026-04-17 09:21 | 48.02104 | 2.81939 | 29236 ft | 412 kts | 159° |
| 2026-04-17 09:21 | 47.96809 | 2.85187 | 29225 ft | 412 kts | 159° |
| 2026-04-17 09:22 | 47.91521 | 2.88485 | 29242 ft | 412 kts | 159° |
| 2026-04-17 09:22 | 47.86248 | 2.91815 | 29228 ft | 412 kts | 159° |
| 2026-04-17 09:23 | 47.81021 | 2.95121 | 29235 ft | 411 kts | 159° |
| 2026-04-17 09:23 | 47.75753 | 2.98447 | 29218 ft | 411 kts | 159° |
| 2026-04-17 09:24 | 47.70498 | 3.01756 | 29228 ft | 410 kts | 159° |
| 2026-04-17 09:24 | 47.65234 | 3.05063 | 29224 ft | 411 kts | 159° |
| 2026-04-17 09:25 | 47.60011 | 3.08338 | 29221 ft | 410 kts | 159° |
| 2026-04-17 09:25 | 47.54750 | 3.11630 | 29224 ft | 410 kts | 159° |
| 2026-04-17 09:26 | 47.49492 | 3.14909 | 29230 ft | 410 kts | 159° |
| 2026-04-17 09:26 | 47.44230 | 3.18182 | 29221 ft | 410 kts | 159° |
| 2026-04-17 09:27 | 47.38965 | 3.21452 | 29230 ft | 410 kts | 159° |
| 2026-04-17 09:27 | 47.33735 | 3.24694 | 29210 ft | 410 kts | 160° |
| 2026-04-17 09:28 | 47.28471 | 3.27950 | 29225 ft | 410 kts | 160° |
| 2026-04-17 09:28 | 47.23208 | 3.31198 | 29227 ft | 410 kts | 160° |
| 2026-04-17 09:29 | 47.17943 | 3.34441 | 29229 ft | 410 kts | 160° |
| 2026-04-17 09:29 | 47.12714 | 3.37656 | 29222 ft | 411 kts | 160° |
| 2026-04-17 09:30 | 47.07443 | 3.40890 | 29229 ft | 411 kts | 160° |
| 2026-04-17 09:30 | 47.02167 | 3.44118 | 29238 ft | 411 kts | 160° |
| 2026-04-17 09:31 | 46.96893 | 3.47332 | 29236 ft | 411 kts | 160° |
| 2026-04-17 09:31 | 46.91655 | 3.50517 | 29220 ft | 406 kts | 160° |
| 2026-04-17 09:32 | 46.86554 | 3.53617 | 28894 ft | 391 kts | 160° |
| 2026-04-17 09:32 | 46.84057 | 3.55131 | 28584 ft | 387 kts | 160° |
| 2026-04-17 09:32 | 46.81584 | 3.56628 | 28261 ft | 383 kts | 161° |
| 2026-04-17 09:33 | 46.79132 | 3.58110 | 27891 ft | 380 kts | 160° |
| 2026-04-17 09:33 | 46.76696 | 3.59582 | 27540 ft | 377 kts | 160° |
| 2026-04-17 09:33 | 46.74280 | 3.61041 | 27194 ft | 375 kts | 160° |
| 2026-04-17 09:33 | 46.71880 | 3.62488 | 26847 ft | 372 kts | 160° |
| 2026-04-17 09:34 | 46.69525 | 3.63889 | 26510 ft | 370 kts | 161° |
| 2026-04-17 09:34 | 46.67132 | 3.65240 | 26179 ft | 367 kts | 162° |
| 2026-04-17 09:34 | 46.64754 | 3.66553 | 25834 ft | 365 kts | 162° |
| 2026-04-17 09:34 | 46.62381 | 3.67858 | 25496 ft | 363 kts | 162° |
| 2026-04-17 09:35 | 46.60026 | 3.69155 | 25172 ft | 361 kts | 162° |
| 2026-04-17 09:35 | 46.57683 | 3.70449 | 24836 ft | 360 kts | 162° |
| 2026-04-17 09:35 | 46.55347 | 3.71742 | 24504 ft | 358 kts | 162° |
| 2026-04-17 09:35 | 46.53052 | 3.73014 | 24176 ft | 357 kts | 162° |
| 2026-04-17 09:36 | 46.50734 | 3.74297 | 23833 ft | 356 kts | 162° |
| 2026-04-17 09:36 | 46.48419 | 3.75579 | 23445 ft | 355 kts | 162° |
| 2026-04-17 09:36 | 46.46117 | 3.76853 | 23084 ft | 353 kts | 162° |
| 2026-04-17 09:36 | 46.43831 | 3.78117 | 22738 ft | 351 kts | 162° |
| 2026-04-17 09:37 | 46.41554 | 3.79374 | 22402 ft | 349 kts | 162° |
| 2026-04-17 09:37 | 46.39294 | 3.80620 | 22060 ft | 346 kts | 162° |
| 2026-04-17 09:37 | 46.37126 | 3.82113 | 21708 ft | 348 kts | 144° |
| 2026-04-17 09:37 | 46.35469 | 3.84647 | 21435 ft | 348 kts | 123° |
| 2026-04-17 09:38 | 46.34296 | 3.87693 | 21128 ft | 346 kts | 119° |
| 2026-04-17 09:38 | 46.33211 | 3.90755 | 20789 ft | 346 kts | 118° |
| 2026-04-17 09:38 | 46.32132 | 3.93846 | 20474 ft | 344 kts | 118° |
| 2026-04-17 09:38 | 46.31047 | 3.96939 | 20151 ft | 343 kts | 118° |
| 2026-04-17 09:39 | 46.29962 | 4.00000 | 19830 ft | 342 kts | 118° |
| 2026-04-17 09:39 | 46.28871 | 4.03052 | 19502 ft | 341 kts | 118° |
| 2026-04-17 09:39 | 46.27780 | 4.06086 | 19191 ft | 340 kts | 118° |
| 2026-04-17 09:39 | 46.26688 | 4.09111 | 18886 ft | 339 kts | 118° |
| 2026-04-17 09:40 | 46.25596 | 4.12128 | 18567 ft | 339 kts | 118° |
| 2026-04-17 09:40 | 46.24503 | 4.15143 | 18199 ft | 338 kts | 118° |
| 2026-04-17 09:40 | 46.23427 | 4.18104 | 17856 ft | 337 kts | 118° |
| 2026-04-17 09:40 | 46.22340 | 4.21094 | 17517 ft | 335 kts | 118° |
| 2026-04-17 09:41 | 46.21258 | 4.24067 | 17205 ft | 334 kts | 118° |
| 2026-04-17 09:41 | 46.20179 | 4.27029 | 16886 ft | 332 kts | 118° |
| 2026-04-17 09:41 | 46.19106 | 4.29972 | 16569 ft | 331 kts | 118° |
| 2026-04-17 09:41 | 46.18036 | 4.32904 | 16257 ft | 330 kts | 118° |
| 2026-04-17 09:42 | 46.16968 | 4.35826 | 15937 ft | 329 kts | 118° |
| 2026-04-17 09:42 | 46.15901 | 4.38739 | 15628 ft | 327 kts | 118° |
| 2026-04-17 09:42 | 46.14906 | 4.41628 | 15315 ft | 326 kts | 109° |
| 2026-04-17 09:42 | 46.14581 | 4.44823 | 15116 ft | 320 kts | 86° |
| 2026-04-17 09:43 | 46.14814 | 4.47983 | 14964 ft | 315 kts | 81° |
| 2026-04-17 09:43 | 46.15141 | 4.51095 | 14806 ft | 313 kts | 80° |
| 2026-04-17 09:43 | 46.15482 | 4.54196 | 14640 ft | 312 kts | 80° |
| 2026-04-17 09:43 | 46.15820 | 4.57287 | 14481 ft | 312 kts | 80° |
| 2026-04-17 09:44 | 46.16150 | 4.60379 | 14336 ft | 313 kts | 81° |
| 2026-04-17 09:44 | 46.16476 | 4.63493 | 14171 ft | 315 kts | 81° |
| 2026-04-17 09:44 | 46.16796 | 4.66622 | 14017 ft | 316 kts | 81° |
| 2026-04-17 09:44 | 46.17108 | 4.69713 | 13835 ft | 315 kts | 81° |
| 2026-04-17 09:45 | 46.17421 | 4.72827 | 13665 ft | 313 kts | 81° |
| 2026-04-17 09:45 | 46.17731 | 4.75936 | 13506 ft | 312 kts | 81° |
| 2026-04-17 09:45 | 46.18038 | 4.79031 | 13342 ft | 311 kts | 81° |
| 2026-04-17 09:45 | 46.18342 | 4.82112 | 13182 ft | 310 kts | 81° |
| 2026-04-17 09:46 | 46.18646 | 4.85187 | 13026 ft | 309 kts | 81° |
| 2026-04-17 09:46 | 46.18946 | 4.88252 | 12871 ft | 308 kts | 82° |
| 2026-04-17 09:46 | 46.19242 | 4.91300 | 12714 ft | 307 kts | 82° |
| 2026-04-17 09:46 | 46.19538 | 4.94342 | 12556 ft | 305 kts | 82° |
| 2026-04-17 09:47 | 46.19833 | 4.97369 | 12409 ft | 304 kts | 82° |
| 2026-04-17 09:47 | 46.20127 | 5.00393 | 12258 ft | 304 kts | 82° |
| 2026-04-17 09:47 | 46.20414 | 5.03366 | 12110 ft | 303 kts | 82° |
| 2026-04-17 09:47 | 46.20702 | 5.06372 | 11962 ft | 302 kts | 82° |
| 2026-04-17 09:48 | 46.20992 | 5.09376 | 11811 ft | 302 kts | 82° |
| 2026-04-17 09:48 | 46.21279 | 5.12374 | 11661 ft | 301 kts | 82° |
| 2026-04-17 09:48 | 46.21567 | 5.15364 | 11499 ft | 298 kts | 82° |
| 2026-04-17 09:48 | 46.21847 | 5.18304 | 11344 ft | 292 kts | 82° |
| 2026-04-17 09:49 | 46.22120 | 5.21176 | 11184 ft | 287 kts | 82° |
| 2026-04-17 09:49 | 46.22349 | 5.24037 | 10887 ft | 286 kts | 91° |
| 2026-04-17 09:49 | 46.21919 | 5.26769 | 10715 ft | 276 kts | 115° |
| 2026-04-17 09:49 | 46.21128 | 5.29199 | 10588 ft | 267 kts | 117° |
| 2026-04-17 09:50 | 46.20332 | 5.31603 | 10440 ft | 264 kts | 116° |
| 2026-04-17 09:50 | 46.19521 | 5.33955 | 10306 ft | 260 kts | 124° |
| 2026-04-17 09:50 | 46.18212 | 5.35687 | 10169 ft | 256 kts | 156° |
| 2026-04-17 09:50 | 46.16504 | 5.36240 | 10059 ft | 252 kts | 183° |
| 2026-04-17 09:51 | 46.14801 | 5.35724 | 9930 ft | 251 kts | 203° |
| 2026-04-17 09:51 | 46.13201 | 5.34716 | 9805 ft | 252 kts | 206° |
| 2026-04-17 09:51 | 46.11583 | 5.33730 | 9640 ft | 255 kts | 193° |
| 2026-04-17 09:51 | 46.09835 | 5.33954 | 9517 ft | 258 kts | 157° |
| 2026-04-17 09:52 | 46.08326 | 5.35286 | 9425 ft | 259 kts | 145° |
| 2026-04-17 09:52 | 46.06870 | 5.36835 | 9274 ft | 262 kts | 144° |
| 2026-04-17 09:52 | 46.05405 | 5.38405 | 9127 ft | 260 kts | 144° |
| 2026-04-17 09:52 | 46.03969 | 5.39948 | 8994 ft | 255 kts | 144° |
| 2026-04-17 09:53 | 46.02555 | 5.41459 | 8857 ft | 251 kts | 145° |
| 2026-04-17 09:53 | 46.01157 | 5.42941 | 8748 ft | 249 kts | 145° |
| 2026-04-17 09:53 | 45.99766 | 5.44409 | 8620 ft | 247 kts | 144° |
| 2026-04-17 09:53 | 45.98386 | 5.45867 | 8484 ft | 245 kts | 145° |
| 2026-04-17 09:54 | 45.97013 | 5.47311 | 8371 ft | 245 kts | 145° |
| 2026-04-17 09:54 | 45.95653 | 5.48743 | 8270 ft | 247 kts | 145° |
| 2026-04-17 09:54 | 45.94256 | 5.50210 | 8145 ft | 250 kts | 145° |
| 2026-04-17 09:54 | 45.92844 | 5.51688 | 8036 ft | 253 kts | 145° |
| 2026-04-17 09:55 | 45.91423 | 5.53175 | 7877 ft | 251 kts | 145° |
| 2026-04-17 09:55 | 45.90024 | 5.54640 | 7747 ft | 246 kts | 145° |
| 2026-04-17 09:55 | 45.88665 | 5.56086 | 7611 ft | 240 kts | 140° |
| 2026-04-17 09:55 | 45.87755 | 5.58026 | 7490 ft | 235 kts | 108° |
| 2026-04-17 09:56 | 45.87434 | 5.60309 | 7395 ft | 233 kts | 99° |
| 2026-04-17 09:56 | 45.87223 | 5.62594 | 7290 ft | 235 kts | 98° |
| 2026-04-17 09:56 | 45.87009 | 5.64938 | 7167 ft | 238 kts | 99° |
| 2026-04-17 09:56 | 45.86787 | 5.67295 | 7057 ft | 238 kts | 99° |
| 2026-04-17 09:57 | 45.86566 | 5.69650 | 6934 ft | 238 kts | 99° |
| 2026-04-17 09:57 | 45.86337 | 5.72002 | 6811 ft | 238 kts | 99° |
| 2026-04-17 09:57 | 45.86108 | 5.74328 | 6681 ft | 233 kts | 99° |
| 2026-04-17 09:57 | 45.85883 | 5.76608 | 6557 ft | 229 kts | 99° |
| 2026-04-17 09:58 | 45.85707 | 5.78877 | 6419 ft | 230 kts | 89° |
| 2026-04-17 09:58 | 45.85818 | 5.81183 | 6213 ft | 233 kts | 88° |
| 2026-04-17 09:58 | 45.85867 | 5.83478 | 5996 ft | 233 kts | 99° |
| 2026-04-17 09:58 | 45.85169 | 5.85498 | 5780 ft | 228 kts | 140° |
| 2026-04-17 09:59 | 45.83759 | 5.86369 | 5603 ft | 222 kts | 175° |
| 2026-04-17 09:59 | 45.82216 | 5.86497 | 5416 ft | 222 kts | 176° |
| 2026-04-17 09:59 | 45.80685 | 5.86642 | 5206 ft | 220 kts | 176° |
| 2026-04-17 09:59 | 45.79168 | 5.86773 | 4978 ft | 219 kts | 176° |
| 2026-04-17 10:00 | 45.77647 | 5.86897 | 4608 ft | 219 kts | 176° |
| 2026-04-17 10:00 | 45.76115 | 5.87020 | 4168 ft | 222 kts | 175° |
| 2026-04-17 10:00 | 45.74610 | 5.87143 | 3723 ft | 217 kts | 176° |
| 2026-04-17 10:00 | 45.73137 | 5.87265 | 3317 ft | 209 kts | 176° |
| 2026-04-17 10:01 | 45.71717 | 5.87381 | 2913 ft | 200 kts | 176° |
| 2026-04-17 10:01 | 45.70356 | 5.87492 | 2509 ft | 192 kts | 177° |
| 2026-04-17 10:01 | 45.69074 | 5.87597 | 2162 ft | 179 kts | 177° |
| 2026-04-17 10:01 | 45.67872 | 5.87692 | 1870 ft | 164 kts | 178° |
| 2026-04-17 10:02 | 45.66799 | 5.87933 | 1714 ft | 152 kts | 161° |
| 2026-04-17 10:02 | 45.65882 | 5.88577 | 1723 ft | 147 kts | 151° |
| 2026-04-17 10:02 | 45.64967 | 5.89236 | 1760 ft | 151 kts | 163° |
| 2026-04-17 10:02 | 45.63934 | 5.89398 | 1843 ft | 150 kts | 181° |
| 2026-04-17 10:03 | 45.62888 | 5.89408 | 1847 ft | 151 kts | 179° |
| 2026-04-17 10:03 | 45.61835 | 5.89468 | 1815 ft | 150 kts | 177° |
| 2026-04-17 10:03 | 45.60797 | 5.89535 | 1868 ft | 151 kts | 178° |
| 2026-04-17 10:03 | 45.59748 | 5.89573 | 1855 ft | 151 kts | 183° |
| 2026-04-17 10:04 | 45.58871 | 5.88897 | 1773 ft | 147 kts | 242° |
| 2026-04-17 10:04 | 45.58967 | 5.87557 | 1766 ft | 147 kts | 315° |
| 2026-04-17 10:04 | 45.59910 | 5.87397 | 1652 ft | 149 kts | 24° |
| 2026-04-17 10:04 | 45.60844 | 5.87983 | 1426 ft | 149 kts | 18° |
| 2026-04-17 10:05 | 45.61856 | 5.88168 | 1115 ft | 146 kts | 358° |
| 2026-04-17 10:05 | 45.62835 | 5.88099 | 870 ft | 136 kts | 357° |
| 2026-04-17 10:05 | 45.63730 | 5.88030 | 781 ft | 111 kts | 356° |
| 2026-04-17 10:05 | 45.64281 | 5.87984 | 783 ft | 48 kts | 356° |
| 2026-04-17 10:06 | 45.64520 | 5.87964 | 783 ft | 28 kts | 356° |
| 2026-04-17 10:06 | 45.64608 | 5.88008 | 783 ft | 10 kts | 77° |
| 2026-04-17 10:06 | 45.64606 | 5.88097 | 783 ft | 7 kts | 119° |
| 2026-04-17 10:06 | 45.64562 | 5.88116 | 783 ft | 7 kts | 177° |
| 2026-04-17 10:07 | 45.64516 | 5.88119 | 783 ft | 7 kts | 176° |
| 2026-04-17 10:07 | 45.64471 | 5.88123 | 783 ft | 7 kts | 178° |
| 2026-04-17 10:07 | 45.64415 | 5.88126 | 782 ft | 10 kts | 176° |
| 2026-04-17 10:07 | 45.64323 | 5.88134 | 783 ft | 16 kts | 176° |
| 2026-04-17 10:08 | 45.64198 | 5.88145 | 783 ft | 18 kts | 177° |
| 2026-04-17 10:08 | 45.64082 | 5.88154 | 782 ft | 14 kts | 176° |
| 2026-04-17 10:08 | 45.64046 | 5.88200 | 782 ft | 6 kts | 104° |
| 2026-04-17 10:08 | 45.64042 | 5.88208 | 782 ft | 0 kts | 120° |
| 2026-04-17 10:09 | 45.64024 | 5.88224 | 782 ft | 11 kts | 155° |
| 2026-04-17 10:09 | 45.63921 | 5.88239 | 782 ft | 14 kts | 176° |
| 2026-04-17 10:09 | 45.63836 | 5.88245 | 782 ft | 10 kts | 178° |
| 2026-04-17 10:09 | 45.63783 | 5.88242 | 782 ft | 5 kts | 127° |
| 2026-04-17 10:10 | 45.63780 | 5.88283 | 782 ft | 3 kts | 88° |
| 2026-04-17 10:10 | 45.63781 | 5.88294 | 782 ft | 1 kts | 85° |
| 2026-04-17 10:12 | 45.63781 | 5.88295 | 782 ft | 0 kts | 84° |
| 2026-04-17 10:12 | 45.63781 | 5.88294 | 782 ft | 0 kts | 86° |